Time;durP1;ratioP1;P1;durP2;ratioP2;P2;SDS_P1;SDS_P2;PMS_P1;PMS_P2;Temp;Humidity;BMP_temperature;BMP_pressure;BME280_temperature;BME280_humidity;BME280_pressure;Samples;Min_cycle;Max_cycle;Signal;HPM_P1;HPM_P2
2022/05/01 00:01:27;;;;;;;29.40;19.60;;;;;;;10.71;49.72;100989.02;104024;1296;22570;-74
2022/05/01 00:03:53;;;;;;;29.80;19.10;;;;;;;10.71;49.82;100990.95;104211;1296;25299;-81
2022/05/01 00:06:20;;;;;;;30.30;19.80;;;;;;;10.69;49.93;100987.43;104076;1296;22628;-79
2022/05/01 00:08:46;;;;;;;30.30;19.30;;;;;;;10.69;49.95;100987.08;103967;1294;24269;-76
2022/05/01 00:11:13;;;;;;;27.70;18.60;;;;;;;10.68;50.17;100987.61;104006;1296;22595;-74
2022/05/01 00:13:42;;;;;;;25.70;18.70;;;;;;;10.66;50.33;100983.71;104190;1294;24257;-75
2022/05/01 00:16:09;;;;;;;33.20;19.00;;;;;;;10.64;50.60;100986.35;104283;1294;22573;-75
2022/05/01 00:18:36;;;;;;;30.40;19.70;;;;;;;10.60;50.59;100983.55;103914;1296;25282;-73
2022/05/01 00:21:03;;;;;;;29.30;18.80;;;;;;;10.57;50.81;100982.84;104019;1293;22782;-73
2022/05/01 00:23:29;;;;;;;27.60;19.30;;;;;;;10.55;51.04;100980.91;104026;1293;24295;-75
2022/05/01 00:25:58;;;;;;;27.80;18.50;;;;;;;10.50;51.14;100978.08;104008;1293;23452;-74
2022/05/01 00:28:24;;;;;;;22.20;17.30;;;;;;;10.52;51.23;100984.07;104041;1296;25547;-74
2022/05/01 00:30:50;;;;;;;28.90;18.00;;;;;;;10.51;51.29;100982.67;104034;1296;22878;-79
2022/05/01 00:38:47;;;;;;;24.70;18.40;;;;;;;10.30;51.65;100977.15;104148;1293;22744;-77
2022/05/01 00:41:14;;;;;;;25.00;18.20;;;;;;;10.25;51.90;100976.42;104298;1293;22899;-76
2022/05/01 00:44:06;;;;;;;26.30;18.40;;;;;;;10.21;52.13;100975.73;103814;1293;22566;-78
2022/05/01 00:46:34;;;;;;;21.30;17.00;;;;;;;10.14;52.32;100975.02;104046;1293;22777;-80
2022/05/01 00:49:04;;;;;;;25.50;17.50;;;;;;;10.12;52.46;100975.89;104052;1293;25378;-78
2022/05/01 00:51:33;;;;;;;25.30;17.50;;;;;;;10.13;52.55;100973.77;104168;1293;25334;-78
2022/05/01 00:54:00;;;;;;;25.80;18.20;;;;;;;10.08;52.54;100973.94;104313;1293;22590;-81
2022/05/01 00:56:29;;;;;;;24.20;17.30;;;;;;;10.09;52.87;100973.23;104363;1293;23358;-77
2022/05/01 00:58:55;;;;;;;23.40;17.10;;;;;;;10.10;52.93;100970.77;104259;1293;24357;-80
2022/05/01 01:01:22;;;;;;;26.00;17.60;;;;;;;10.11;53.07;100968.85;104151;1293;22601;-80
2022/05/01 01:03:48;;;;;;;24.90;17.20;;;;;;;10.12;52.99;100974.13;104273;1293;25414;-79
2022/05/01 01:06:15;;;;;;;24.80;17.20;;;;;;;10.15;53.17;100971.31;104160;1293;22616;-78
2022/05/01 01:08:41;;;;;;;22.20;15.80;;;;;;;10.15;53.33;100972.38;104147;1294;22684;-76
2022/05/01 01:11:07;;;;;;;20.20;16.00;;;;;;;10.13;53.30;100971.31;104460;1293;25378;-78
2022/05/01 01:13:34;;;;;;;23.40;16.40;;;;;;;10.11;53.45;100970.25;104257;1295;25424;-79
2022/05/01 01:16:00;;;;;;;24.70;16.30;;;;;;;10.06;53.52;100964.44;104571;1293;23963;-80
2022/05/01 01:18:26;;;;;;;22.10;17.10;;;;;;;10.06;53.44;100969.36;103973;1293;22593;-79
2022/05/01 01:20:54;;;;;;;22.40;15.40;;;;;;;10.04;53.68;100964.26;104716;1294;22569;-78
2022/05/01 01:23:23;;;;;;;25.70;17.00;;;;;;;10.02;53.79;100966.70;106334;1293;25411;-79
2022/05/01 01:25:50;;;;;;;22.30;16.00;;;;;;;10.00;53.76;100966.17;106395;1296;22578;-79
2022/05/01 01:28:20;;;;;;;21.50;16.00;;;;;;;9.95;54.03;100970.04;106275;1296;22594;-78
2022/05/01 01:33:34;;;;;;;20.90;15.70;;;;;;;9.82;54.30;100972.12;104207;1298;23057;-85
2022/05/01 01:36:03;;;;;;;22.60;14.80;;;;;;;9.82;54.41;100970.88;103735;1299;22587;-86
2022/05/01 01:38:30;;;;;;;20.30;14.90;;;;;;;9.82;54.50;100971.23;103511;1299;22749;-84
2022/05/01 01:40:59;;;;;;;19.30;15.20;;;;;;;9.82;54.50;100972.45;103711;1299;26552;-84
2022/05/01 01:43:27;;;;;;;18.00;13.70;;;;;;;9.81;54.56;100969.27;103758;1299;23369;-85
2022/05/01 01:45:57;;;;;;;21.20;14.40;;;;;;;9.78;54.67;100967.70;103684;1301;22750;-85
2022/05/01 01:48:24;;;;;;;17.90;13.50;;;;;;;9.75;54.71;100962.23;103602;1299;22616;-86
2022/05/01 01:51:00;;;;;;;21.10;14.40;;;;;;;9.66;54.70;100961.86;103796;1299;22608;-81
2022/05/01 01:53:27;;;;;;;;;;;;;;;9.63;54.85;100959.20;103457;1302;23545;-84
2022/05/01 01:55:53;;;;;;;20.40;13.70;;;;;;;9.62;55.02;100954.80;103241;1303;22613;-84
2022/05/01 01:58:20;;;;;;;20.50;14.00;;;;;;;9.57;55.14;100947.73;104207;1297;25426;-83
2022/05/01 02:00:46;;;;;;;23.90;14.90;;;;;;;9.57;55.22;100955.48;105594;1299;22601;-84
2022/05/01 02:03:13;;;;;;;18.30;13.50;;;;;;;9.57;55.22;100954.59;103350;1305;22616;-84
2022/05/01 02:05:39;;;;;;;18.00;13.20;;;;;;;9.55;55.30;100950.90;103485;1303;25378;-87
2022/05/01 02:08:08;;;;;;;18.40;13.70;;;;;;;9.54;55.37;100954.94;103416;1305;25545;-92
2022/05/01 02:10:35;;;;;;;16.70;13.10;;;;;;;9.46;55.49;100944.88;103435;1303;24341;-86
2022/05/01 02:13:04;;;;;;;25.20;17.10;;;;;;;9.50;55.63;100954.05;103514;1302;24344;-89
2022/05/01 02:15:30;;;;;;;21.60;16.40;;;;;;;9.48;55.71;100952.80;104148;1301;24294;-90
2022/05/01 02:18:00;;;;;;;24.50;15.30;;;;;;;9.45;55.88;100950.69;103944;1302;25323;-92
2022/05/01 02:21:33;;;;;;;21.90;14.60;;;;;;;9.40;56.02;100954.02;103915;1302;22552;-89
2022/05/01 02:23:18;;;;;;;21.40;15.20;;;;;;;9.36;56.12;100952.05;103850;1296;22715;-85
2022/05/01 02:25:45;;;;;;;20.30;13.20;;;;;;;9.34;56.29;100954.31;104033;1294;22599;-89
2022/05/01 02:28:11;;;;;;;16.90;12.60;;;;;;;9.29;56.41;100954.30;104172;1296;25565;-89
2022/05/01 02:30:38;;;;;;;20.90;13.40;;;;;;;9.29;56.52;100952.55;103799;1297;25010;-85
2022/05/01 02:33:08;;;;;;;19.60;14.20;;;;;;;9.28;56.63;100958.69;103850;1296;22627;-84
2022/05/01 02:35:35;;;;;;;19.80;13.10;;;;;;;9.28;56.73;100960.45;103899;1294;22700;-84
2022/05/01 02:38:02;;;;;;;19.60;13.60;;;;;;;9.24;56.74;100953.75;104034;1296;22529;-89
2022/05/01 02:40:30;;;;;;;21.50;13.30;;;;;;;9.23;56.66;100959.36;104131;1299;24088;-87
2022/05/01 02:42:58;;;;;;;16.60;12.70;;;;;;;9.19;56.85;100955.48;104456;1296;24610;-87
2022/05/01 02:45:25;;;;;;;20.70;13.10;;;;;;;9.16;56.97;100958.61;104368;1295;25415;-89
2022/05/01 02:47:52;;;;;;;20.10;13.60;;;;;;;9.15;57.17;100953.86;104040;1296;22657;-87
2022/05/01 02:50:18;;;;;;;23.50;13.50;;;;;;;9.18;57.39;100953.02;104634;1296;25565;-91
2022/05/01 02:52:45;;;;;;;18.00;12.60;;;;;;;9.18;57.28;100948.63;104812;1296;22595;-92
2022/05/01 02:55:14;;;;;;;23.60;14.00;;;;;;;9.19;57.42;100948.28;105929;1296;22760;-91
2022/05/01 02:57:41;;;;;;;18.80;13.00;;;;;;;9.16;57.39;100953.00;105881;1296;24254;-91
2022/05/01 03:00:16;;;;;;;19.60;13.00;;;;;;;9.11;57.46;100957.89;104363;1296;22661;-89
2022/05/01 03:02:47;;;;;;;23.50;14.10;;;;;;;9.10;57.46;100957.70;103998;1296;24351;-89
2022/05/01 03:05:14;;;;;;;17.90;13.50;;;;;;;9.11;57.56;100961.05;104207;1296;25991;-90
2022/05/01 03:07:41;;;;;;;16.20;13.00;;;;;;;9.12;57.65;100963.51;104074;1299;22635;-90
2022/05/01 03:10:10;;;;;;;20.00;13.20;;;;;;;9.11;57.55;100964.21;103922;1297;22605;-86
2022/05/01 03:12:37;;;;;;;15.00;12.00;;;;;;;9.11;57.59;100961.91;103915;1299;25357;-90
2022/05/01 03:15:08;;;;;;;19.10;12.80;;;;;;;9.09;57.77;100962.27;103848;1299;25320;-85
2022/05/01 03:23:06;;;;;;;17.20;12.50;;;;;;;8.98;57.94;100965.89;104524;1297;25006;-87
2022/05/01 03:25:34;;;;;;;15.60;11.80;;;;;;;8.85;57.88;100964.23;105265;1299;22624;-88
2022/05/01 03:28:00;;;;;;;15.40;12.30;;;;;;;8.77;58.32;100962.40;105766;1299;24309;-88
2022/05/01 03:30:26;;;;;;;17.10;11.80;;;;;;;8.80;58.41;100967.70;105601;1302;22659;-89
2022/05/01 03:32:52;;;;;;;13.60;11.70;;;;;;;8.79;58.51;100966.28;105235;1299;25526;-82
2022/05/01 03:35:21;;;;;;;15.40;12.40;;;;;;;8.78;58.69;100963.30;104037;1299;22595;-87
2022/05/01 03:37:48;;;;;;;15.50;12.20;;;;;;;8.80;58.67;100964.89;103963;1299;24472;-90
2022/05/01 03:40:16;;;;;;;15.40;12.30;;;;;;;8.83;58.80;100966.48;104027;1299;23965;-89
2022/05/01 03:42:43;;;;;;;15.00;11.90;;;;;;;8.86;58.79;100964.23;104072;1299;22740;-89
2022/05/01 03:45:09;;;;;;;16.40;12.80;;;;;;;8.85;58.72;100963.16;103730;1299;25585;-84
2022/05/01 03:47:37;;;;;;;15.80;12.50;;;;;;;8.84;58.76;100964.39;103663;1300;23456;-86
2022/05/01 03:50:05;;;;;;;15.30;12.00;;;;;;;8.83;58.90;100964.55;103908;1296;24844;-85
2022/05/01 03:52:33;;;;;;;15.30;11.60;;;;;;;8.82;58.82;100964.02;104198;1296;24019;-88
2022/05/01 03:54:59;;;;;;;16.00;11.50;;;;;;;8.82;59.03;100964.02;104147;1296;22575;-89
2022/05/01 03:57:32;;;;;;;17.20;11.90;;;;;;;8.81;59.08;100964.02;104130;1296;24261;-85
2022/05/01 03:59:58;;;;;;;15.40;11.10;;;;;;;8.81;59.02;100963.48;103821;1297;22561;-85
2022/05/01 04:02:25;;;;;;;13.70;11.00;;;;;;;8.77;59.16;100963.64;103672;1297;24128;-84
2022/05/01 04:04:52;;;;;;;15.50;11.80;;;;;;;8.78;59.36;100961.02;103458;1302;24271;-84
2022/05/01 04:07:18;;;;;;;13.80;11.20;;;;;;;8.80;59.32;100962.96;103501;1302;24358;-87
2022/05/01 04:09:45;;;;;;;16.10;12.50;;;;;;;8.83;59.49;100968.08;103748;1302;22728;-85
2022/05/01 04:12:11;;;;;;;15.30;11.60;;;;;;;8.87;59.46;100967.39;103840;1302;22698;-82
2022/05/01 04:14:38;;;;;;;19.70;11.30;;;;;;;8.90;59.31;100971.10;103714;1302;22756;-85
2022/05/01 04:17:05;;;;;;;13.20;11.10;;;;;;;8.87;59.19;100973.55;103563;1302;25441;-84
2022/05/01 04:19:31;;;;;;;15.80;11.60;;;;;;;8.85;59.31;100970.71;103800;1299;25915;-84
2022/05/01 04:21:58;;;;;;;14.60;10.40;;;;;;;8.87;59.40;100970.20;103962;1299;25538;-86
2022/05/01 04:24:24;;;;;;;14.10;10.90;;;;;;;8.89;59.40;100966.18;104742;1296;22628;-84
2022/05/01 04:26:50;;;;;;;16.70;11.80;;;;;;;8.88;59.44;100966.35;104860;1296;25484;-86
2022/05/01 04:32:04;;;;;;;14.40;10.60;;;;;;;8.88;59.49;100965.83;104815;1296;22574;-83
2022/05/01 04:34:32;;;;;;;13.80;10.80;;;;;;;8.90;59.61;100970.92;104060;1296;22539;-85
2022/05/01 04:36:59;;;;;;;14.10;10.80;;;;;;;8.94;59.62;100970.42;104754;1296;22609;-89
2022/05/01 04:39:26;;;;;;;16.60;10.60;;;;;;;8.91;59.52;100968.83;104336;1294;22605;-78
2022/05/01 04:41:53;;;;;;;11.60;10.20;;;;;;;8.92;59.59;100971.11;103777;1296;23974;-78
2022/05/01 04:44:20;;;;;;;13.80;10.50;;;;;;;8.95;59.70;100972.02;104384;1296;24393;-89
2022/05/01 04:46:49;;;;;;;14.80;11.60;;;;;;;8.99;59.66;100969.77;104166;1296;22588;-87
2022/05/01 04:49:18;;;;;;;14.10;11.00;;;;;;;9.04;59.70;100969.09;104183;1296;22753;-84
2022/05/01 04:51:46;;;;;;;16.60;11.10;;;;;;;9.08;59.51;100969.81;104431;1296;26616;-82
2022/05/01 04:54:12;;;;;;;15.00;10.70;;;;;;;9.12;59.42;100971.95;103902;1299;22567;-87
2022/05/01 04:59:24;;;;;;;23.20;10.80;;;;;;;9.07;59.35;100968.58;106099;1299;22707;-92
2022/05/01 05:01:50;;;;;;;15.20;10.50;;;;;;;9.12;59.38;100972.83;106529;1299;22593;-90
2022/05/01 05:04:16;;;;;;;14.00;10.90;;;;;;;9.14;59.20;100968.44;105796;1300;22579;-80
2022/05/01 05:06:42;;;;;;;16.30;10.50;;;;;;;9.15;59.24;100972.49;105727;1300;216900;-89
2022/05/01 05:11:53;;;;;;;12.60;10.30;;;;;;;9.36;59.14;100967.68;105657;1297;25310;-90
2022/05/01 05:14:20;;;;;;;15.60;10.70;;;;;;;9.35;58.93;100961.53;104912;1296;24269;-91
2022/05/01 05:16:46;;;;;;;12.90;9.70;;;;;;;9.42;58.97;100960.52;104431;1296;22577;-93
2022/05/01 05:19:12;;;;;;;11.90;10.00;;;;;;;9.50;58.79;100965.46;104312;1295;22567;-93
2022/05/01 05:21:38;;;;;;;15.10;9.90;;;;;;;9.55;58.69;100964.09;104304;1296;22563;-88
2022/05/01 05:24:05;;;;;;;11.40;9.70;;;;;;;9.60;58.63;100964.99;104436;1296;22729;-90
2022/05/01 05:26:31;;;;;;;17.20;10.10;;;;;;;9.60;58.57;100958.48;103996;1296;22569;-85
2022/05/01 05:28:58;;;;;;;13.50;11.40;;;;;;;9.72;58.40;100967.15;103911;1296;25630;-83
2022/05/01 05:31:24;;;;;;;14.60;10.90;;;;;;;9.75;58.38;100966.46;103971;1299;22914;-85
2022/05/01 05:33:51;;;;;;;14.30;9.80;;;;;;;9.80;58.17;100968.05;103795;1300;26631;-87
2022/05/01 05:36:18;;;;;;;12.60;9.80;;;;;;;9.85;58.13;100969.13;103705;1299;22579;-87
2022/05/01 05:38:45;;;;;;;16.60;10.50;;;;;;;9.91;58.17;100971.96;103698;1299;22557;-86
2022/05/01 05:41:17;;;;;;;11.10;9.50;;;;;;;9.94;57.88;100970.56;103700;1299;22593;-87
2022/05/01 05:43:43;;;;;;;13.70;9.90;;;;;;;9.93;57.89;100971.08;103801;1300;22673;-86
2022/05/01 05:46:10;;;;;;;13.70;10.40;;;;;;;9.98;57.83;100976.02;103934;1299;22575;-87
2022/05/01 05:48:37;;;;;;;17.50;9.70;;;;;;;10.04;57.86;100975.69;105318;1299;22953;-86
2022/05/01 05:51:05;;;;;;;13.40;9.70;;;;;;;10.14;57.78;100974.13;105696;1296;23031;-86
2022/05/01 05:53:32;;;;;;;13.30;9.90;;;;;;;10.22;57.76;100973.78;104481;1299;25371;-86
2022/05/01 05:55:59;;;;;;;14.50;9.00;;;;;;;10.30;57.66;100973.98;104095;1296;23073;-85
2022/05/01 05:58:25;;;;;;;11.80;9.60;;;;;;;10.36;57.34;100974.88;104350;1296;22684;-86
2022/05/01 06:00:52;;;;;;;12.20;9.50;;;;;;;10.40;57.20;100979.10;104049;1299;22783;-88
2022/05/01 06:03:19;;;;;;;12.20;9.10;;;;;;;10.43;57.16;100979.96;104413;1296;25353;-83
2022/05/01 06:05:47;;;;;;;17.20;9.80;;;;;;;10.49;57.00;100978.96;104173;1296;25309;-85
2022/05/01 06:08:15;;;;;;;14.30;8.70;;;;;;;10.55;56.78;100978.27;104085;1296;23960;-81
2022/05/01 06:10:42;;;;;;;11.10;9.70;;;;;;;10.61;56.40;100983.19;104079;1296;25181;-84
2022/05/01 06:13:08;;;;;;;13.60;9.30;;;;;;;10.70;56.28;100980.55;103759;1296;25300;-80
2022/05/01 06:15:37;;;;;;;13.60;8.80;;;;;;;10.76;56.17;100979.33;103913;1296;25506;-80
2022/05/01 06:18:04;;;;;;;13.10;8.20;;;;;;;10.83;55.97;100975.44;104143;1296;23429;-81
2022/05/01 06:20:30;;;;;;;11.00;8.00;;;;;;;10.88;55.61;100979.14;104507;1296;22967;-79
2022/05/01 06:22:56;;;;;;;12.00;8.60;;;;;;;10.97;55.41;100980.89;105005;1296;24227;-79
2022/05/01 06:25:23;;;;;;;10.90;8.20;;;;;;;11.03;55.00;100982.11;104269;1296;22598;-80
2022/05/01 06:27:49;;;;;;;11.90;7.80;;;;;;;11.08;54.73;100983.52;103905;1296;22586;-82
2022/05/01 06:30:15;;;;;;;11.20;8.10;;;;;;;11.07;54.66;100977.00;104065;1296;24879;-80
2022/05/01 06:32:43;;;;;;;11.50;8.00;;;;;;;11.17;54.22;100990.55;104090;1296;25421;-81
2022/05/01 06:35:11;;;;;;;11.90;8.50;;;;;;;11.22;54.36;100989.30;104024;1296;24367;-89
2022/05/01 06:37:38;;;;;;;10.10;8.80;;;;;;;11.30;54.50;100990.69;104148;1296;24827;-86
2022/05/01 06:40:05;;;;;;;11.90;9.20;;;;;;;11.40;54.20;100991.55;104014;1296;24274;-87
2022/05/01 06:42:33;;;;;;;14.50;9.40;;;;;;;11.48;54.09;100993.29;104711;1296;24335;-86
2022/05/01 06:44:59;;;;;;;12.80;9.40;;;;;;;11.52;53.82;100992.74;104033;1296;24586;-85
2022/05/01 06:47:26;;;;;;;15.60;9.60;;;;;;;11.60;53.58;100993.77;104294;1294;24300;-83
2022/05/01 06:49:52;;;;;;;11.00;7.90;;;;;;;11.66;53.41;100992.34;104048;1296;24263;-85
2022/05/01 06:52:23;;;;;;;11.70;8.80;;;;;;;11.71;53.48;100990.03;104095;1296;22601;-88
2022/05/01 06:54:51;;;;;;;11.40;8.10;;;;;;;11.82;53.07;100994.58;104028;1299;24310;-81
2022/05/01 06:57:17;;;;;;;11.10;8.00;;;;;;;11.93;52.76;100990.46;105442;1299;22600;-83
2022/05/01 06:59:43;;;;;;;8.10;7.30;;;;;;;12.05;52.46;100991.63;105650;1299;22623;-86
2022/05/01 07:02:11;;;;;;;11.40;7.60;;;;;;;12.14;51.92;100988.07;104678;1298;25342;-86
2022/05/01 07:04:37;;;;;;;8.80;7.80;;;;;;;12.24;51.90;100991.91;104709;1299;22569;-85
2022/05/01 07:07:04;;;;;;;12.90;8.40;;;;;;;12.38;51.77;100987.74;104340;1305;25750;-86
2022/05/01 07:09:30;;;;;;;11.30;8.40;;;;;;;12.53;51.70;100987.46;104756;1303;22586;-85
2022/05/01 07:11:57;;;;;;;10.10;7.80;;;;;;;12.70;51.63;100991.22;105040;1303;24252;-86
2022/05/01 07:14:24;;;;;;;10.30;8.20;;;;;;;12.87;51.31;100989.30;105285;1303;22599;-85
2022/05/01 07:16:50;;;;;;;9.90;7.50;;;;;;;13.03;50.86;100990.39;105821;1303;22747;-82
2022/05/01 07:19:17;;;;;;;12.30;8.80;;;;;;;13.19;50.24;100988.83;105525;1300;22640;-85
2022/05/01 07:21:43;;;;;;;10.40;7.60;;;;;;;13.36;49.86;100991.66;105547;1300;22598;-84
2022/05/01 07:24:10;;;;;;;13.80;7.50;;;;;;;13.48;49.15;100984.80;104945;1300;22619;-85
2022/05/01 07:26:36;;;;;;;7.80;6.90;;;;;;;13.57;48.71;100981.70;104035;1302;25445;-85
2022/05/01 07:29:04;;;;;;;9.30;7.10;;;;;;;13.67;48.74;100982.48;103982;1301;25340;-84
2022/05/01 07:31:31;;;;;;;11.50;7.10;;;;;;;13.78;48.72;100981.44;103767;1302;25736;-80
2022/05/01 07:33:57;;;;;;;10.30;6.60;;;;;;;13.91;48.48;100981.28;103772;1302;25307;-85
2022/05/01 07:36:23;;;;;;;12.20;6.40;;;;;;;14.05;48.12;100978.96;103599;1301;25428;-83
2022/05/01 07:38:50;;;;;;;13.10;6.90;;;;;;;14.16;48.01;100984.48;103587;1302;23119;-80
2022/05/01 07:41:17;;;;;;;7.10;6.30;;;;;;;14.30;47.77;100988.01;103351;1302;25303;-79
2022/05/01 07:43:44;;;;;;;7.60;6.50;;;;;;;14.43;47.34;100984.25;103511;1302;22592;-79
2022/05/01 07:46:11;;;;;;;10.70;6.80;;;;;;;14.57;47.15;100985.29;103646;1299;24129;-81
2022/05/01 07:48:38;;;;;;;7.60;6.00;;;;;;;14.70;46.51;100987.37;103677;1299;23121;-81
2022/05/01 07:51:04;;;;;;;6.90;6.20;;;;;;;14.81;45.91;100988.80;103649;1299;22661;-80
2022/05/01 07:53:34;;;;;;;8.30;6.30;;;;;;;14.91;45.36;100981.02;104099;1299;24212;-81
2022/05/01 07:56:01;;;;;;;10.30;6.40;;;;;;;15.04;45.27;100981.48;103805;1299;22574;-81
2022/05/01 07:58:28;;;;;;;8.60;6.70;;;;;;;15.18;45.15;100976.98;103816;1299;24895;-79
2022/05/01 08:00:58;;;;;;;8.10;6.10;;;;;;;15.32;45.21;100973.88;103743;1299;24011;-82
2022/05/01 08:06:11;;;;;;;7.10;5.40;;;;;;;15.64;44.23;100968.98;103889;1296;24230;-82
2022/05/01 08:08:39;;;;;;;6.70;5.40;;;;;;;15.73;43.87;100964.35;104417;1296;24447;-83
2022/05/01 08:11:06;;;;;;;6.20;5.10;;;;;;;15.78;43.55;100964.77;104436;1296;22595;-83
2022/05/01 08:13:32;;;;;;;8.20;5.30;;;;;;;15.87;43.27;100961.92;104938;1294;22565;-82
2022/05/01 08:15:59;;;;;;;5.50;4.90;;;;;;;15.94;42.81;100958.20;104661;1295;23246;-83
2022/05/01 08:21:10;;;;;;;5.70;5.10;;;;;;;16.14;42.46;100963.30;104166;1296;24272;-80
2022/05/01 08:23:39;;;;;;;5.30;4.30;;;;;;;16.23;42.40;100958.12;104070;1296;24331;-81
2022/05/01 08:26:07;;;;;;;5.50;4.10;;;;;;;16.38;41.41;100960.45;104039;1296;23808;-81
2022/05/01 08:28:35;;;;;;;4.90;4.10;;;;;;;16.48;40.80;100958.60;103917;1297;22750;-81
2022/05/01 08:31:02;;;;;;;4.80;3.40;;;;;;;16.60;40.65;100953.67;104280;1294;24049;-81
2022/05/01 08:33:29;;;;;;;4.50;3.20;;;;;;;16.69;39.68;100956.47;103921;1296;25696;-81
2022/05/01 08:35:56;;;;;;;5.00;3.20;;;;;;;16.75;39.35;100953.11;104219;1296;22598;-82
2022/05/01 08:38:23;;;;;;;7.40;3.70;;;;;;;16.85;39.49;100952.85;104073;1302;23495;-79
2022/05/01 08:40:51;;;;;;;4.30;3.80;;;;;;;16.98;39.72;100946.46;104431;1302;22602;-82
2022/05/01 08:43:20;;;;;;;5.90;3.60;;;;;;;17.12;39.47;100948.61;104196;1300;22791;-82
2022/05/01 08:45:52;;;;;;;5.80;3.70;;;;;;;17.22;39.11;100946.38;104120;1300;24347;-84
2022/05/01 08:48:36;;;;;;;6.90;3.60;;;;;;;17.33;38.82;100939.48;103947;1300;26073;-84
2022/05/01 08:51:05;;;;;;;3.40;2.60;;;;;;;17.49;38.23;100936.16;103794;1300;26579;-83
2022/05/01 09:17:20;;;;;;;2.40;2.10;;;;;;;18.80;34.40;100923.52;106166;1282;22589;-87
2022/05/01 09:19:50;;;;;;;4.10;2.70;;;;;;;18.96;34.33;100921.15;108068;1289;22434;-86
2022/05/01 09:22:19;;;;;;;4.10;2.30;;;;;;;19.14;34.08;100921.08;107853;1290;22378;-86
2022/05/01 09:24:52;;;;;;;4.10;2.00;;;;;;;19.29;33.19;100916.61;107284;1296;23241;-85
2022/05/01 09:27:31;;;;;;;3.70;2.00;;;;;;;19.40;32.44;100914.94;107202;1295;22502;-83
2022/05/01 09:30:07;;;;;;;3.60;2.20;;;;;;;19.51;32.02;100916.52;107135;1297;22262;-81
2022/05/01 09:32:39;;;;;;;4.30;2.20;;;;;;;19.57;31.32;100914.66;106902;1301;22242;-80
2022/05/01 09:35:25;;;;;;;2.80;1.50;;;;;;;19.70;31.30;100912.73;106870;1302;22477;-82
2022/05/01 09:38:15;;;;;;;1.80;1.50;;;;;;;19.87;31.03;100907.24;106963;1302;22259;-85
2022/05/01 09:40:49;;;;;;;2.10;1.70;;;;;;;20.05;30.81;100908.89;106931;1302;22637;-83
2022/05/01 09:43:43;;;;;;;2.60;1.80;;;;;;;20.20;30.88;100908.65;107177;1297;22472;-80
2022/05/01 09:46:14;;;;;;;3.60;2.20;;;;;;;20.26;30.61;100906.42;107163;1297;22972;-79
2022/05/01 09:48:42;;;;;;;3.60;2.20;;;;;;;20.31;31.09;100905.52;107170;1297;22482;-79
2022/05/01 09:51:15;;;;;;;5.70;2.30;;;;;;;20.42;31.31;100902.55;107205;1295;23044;-81
2022/05/01 09:53:42;;;;;;;4.90;2.30;;;;;;;20.53;31.52;100897.27;107290;1295;23139;-83
2022/05/01 09:56:09;;;;;;;4.50;2.50;;;;;;;20.69;31.26;100898.19;107192;1297;22642;-80
2022/05/01 09:58:40;;;;;;;5.30;2.60;;;;;;;20.80;30.59;100899.32;107174;1296;22594;-81
2022/05/01 10:01:09;;;;;;;4.60;2.10;;;;;;;20.87;30.32;100893.30;107293;1294;22409;-80
2022/05/01 10:03:39;;;;;;;2.90;2.50;;;;;;;21.00;30.43;100885.92;107385;1296;22562;-76
2022/05/01 10:06:09;;;;;;;5.70;2.20;;;;;;;21.11;30.14;100888.30;107274;1296;22491;-76
2022/05/01 10:08:41;;;;;;;4.60;2.70;;;;;;;21.16;29.86;100884.16;107339;1293;22500;-83
2022/05/01 10:11:08;;;;;;;2.60;2.20;;;;;;;21.22;29.41;100886.23;108060;1290;22182;-92
2022/05/01 10:13:35;;;;;;;5.90;2.00;;;;;;;21.17;29.12;100886.48;107859;1290;22348;-82
2022/05/01 10:16:09;;;;;;;5.70;2.20;;;;;;;21.17;29.54;100883.05;107941;1292;22431;-86
2022/05/01 10:18:45;;;;;;;2.90;2.10;;;;;;;21.30;29.20;100878.34;108051;1290;22410;-88
2022/05/01 10:21:32;;;;;;;4.80;2.50;;;;;;;21.47;29.31;100878.23;108071;1289;22372;-88
2022/05/01 10:24:01;;;;;;;4.10;2.10;;;;;;;21.62;28.79;100876.67;107885;1290;24259;-87
2022/05/01 10:26:31;;;;;;;2.80;2.10;;;;;;;21.62;28.64;100868.44;107633;1290;22376;-88
2022/05/01 10:29:20;;;;;;;3.60;2.50;;;;;;;21.66;28.79;100869.84;107788;1290;22899;-88
2022/05/01 10:32:33;;;;;;;4.50;2.50;;;;;;;21.79;28.94;100868.88;108197;1290;22920;-87
2022/05/01 10:35:46;;;;;;;3.40;2.20;;;;;;;21.87;28.60;100864.56;107912;1290;22361;-88
2022/05/01 10:38:21;;;;;;;3.50;2.20;;;;;;;21.98;28.43;100861.35;107884;1290;22503;-87
2022/05/01 10:40:53;;;;;;;5.70;2.20;;;;;;;22.17;28.09;100864.51;108287;1290;22413;-85
2022/05/01 10:43:33;;;;;;;2.50;2.30;;;;;;;22.35;28.19;100862.02;108318;1290;22448;-87
2022/05/01 10:46:17;;;;;;;2.50;2.00;;;;;;;22.51;28.03;100854.89;108224;1290;22355;-86
2022/05/01 10:48:43;;;;;;;2.90;2.10;;;;;;;22.73;27.82;100855.25;107972;1290;22322;-86
2022/05/01 10:51:31;;;;;;;5.30;2.50;;;;;;;22.88;27.55;100852.48;108342;1290;22308;-87
2022/05/01 10:54:15;;;;;;;3.50;2.20;;;;;;;23.03;26.68;100851.52;108321;1290;22376;-87
2022/05/01 10:56:46;;;;;;;3.00;2.00;;;;;;;23.14;26.95;100847.67;108343;1290;22350;-87
2022/05/01 10:59:35;;;;;;;3.60;2.10;;;;;;;23.32;26.67;100842.37;108258;1290;22436;-88
2022/05/01 11:02:22;;;;;;;2.40;2.00;;;;;;;23.48;26.30;100838.27;108085;1290;22455;-87
2022/05/01 11:04:49;;;;;;;2.80;1.80;;;;;;;23.64;26.01;100842.80;107945;1290;22332;-84
2022/05/01 11:07:17;;;;;;;5.40;1.80;;;;;;;23.78;25.90;100838.02;107926;1290;22362;-86
2022/05/01 11:09:46;;;;;;;4.80;1.60;;;;;;;23.92;25.64;100841.55;108295;1290;22351;-86
2022/05/01 11:12:16;;;;;;;3.20;2.00;;;;;;;23.97;25.37;100841.05;107955;1290;22516;-86
2022/05/01 11:14:55;;;;;;;6.00;1.80;;;;;;;24.03;25.30;100842.04;108216;1290;22381;-88
2022/05/01 11:17:37;;;;;;;1.90;1.60;;;;;;;24.17;25.01;100841.39;108200;1290;22378;-87
2022/05/01 11:20:08;;;;;;;5.00;1.50;;;;;;;24.26;24.70;100841.08;108262;1290;22513;-85
2022/05/01 11:22:35;;;;;;;4.40;1.50;;;;;;;24.40;24.69;100838.41;108248;1289;22368;-88
2022/05/01 11:25:03;;;;;;;2.60;1.40;;;;;;;24.49;24.70;100835.71;108294;1290;22353;-83
2022/05/01 11:27:52;;;;;;;4.00;2.00;;;;;;;24.69;24.33;100840.46;108192;1290;22360;-89
2022/05/01 11:30:22;;;;;;;2.80;1.90;;;;;;;24.89;24.11;100834.90;108002;1290;22485;-86
2022/05/01 11:33:08;;;;;;;3.60;2.20;;;;;;;25.02;23.61;100826.05;108290;1290;22382;-87
2022/05/01 11:36:00;;;;;;;3.00;1.70;;;;;;;25.07;23.21;100827.00;107810;1290;22415;-87
2022/05/01 11:38:51;;;;;;;3.60;2.00;;;;;;;25.19;23.18;100824.75;108255;1290;22381;-86
2022/05/01 11:41:41;;;;;;;2.70;1.90;;;;;;;25.21;23.33;100823.56;108213;1290;22348;-87
2022/05/01 11:44:34;;;;;;;3.60;1.70;;;;;;;25.25;22.90;100820.45;108243;1290;22505;-85
2022/05/01 11:47:05;;;;;;;2.90;1.70;;;;;;;25.35;23.22;100815.99;107857;1290;22445;-87
2022/05/01 11:49:38;;;;;;;2.30;1.90;;;;;;;25.47;23.21;100809.66;108288;1290;22379;-87
2022/05/01 11:52:06;;;;;;;4.60;1.50;;;;;;;25.57;22.92;100804.33;107820;1290;22365;-85
2022/05/01 11:54:35;;;;;;;2.60;1.70;;;;;;;25.55;22.79;100795.77;107985;1290;23100;-87
2022/05/01 12:02:32;;;;;;;2.40;1.90;;;;;;;25.46;22.30;100796.38;108100;1290;23009;-88
2022/05/01 12:05:04;;;;;;;4.40;1.80;;;;;;;25.12;21.76;100800.52;107264;1297;22645;-87
2022/05/01 12:07:31;;;;;;;3.20;1.60;;;;;;;24.64;22.03;100800.78;107312;1297;22417;-87
2022/05/01 12:09:57;;;;;;;2.50;1.50;;;;;;;24.55;22.18;100802.20;107163;1297;22458;-87
2022/05/01 12:12:29;;;;;;;3.60;2.00;;;;;;;24.77;22.69;100794.27;107196;1297;22664;-87
2022/05/01 12:14:57;;;;;;;3.80;1.90;;;;;;;25.09;22.70;100796.55;107175;1297;22414;-87
2022/05/01 12:17:24;;;;;;;3.90;2.10;;;;;;;25.41;22.75;100796.67;107277;1297;22243;-87
2022/05/01 12:19:54;;;;;;;3.60;2.40;;;;;;;25.62;22.75;100794.80;107355;1297;23217;-88